sensor_id;sensor_type;location;lat;lon;timestamp;pressure;altitude;pressure_sealevel;temperature;humidity
7157;BME280;3620;49.862;8.758;2023-01-05T00:00:08;99392.38;;;11.64;100.00
7157;BME280;3620;49.862;8.758;2023-01-05T00:02:35;99401.38;;;11.60;100.00
7157;BME280;3620;49.862;8.758;2023-01-05T00:05:01;99408.50;;;11.58;100.00
7157;BME280;3620;49.862;8.758;2023-01-05T00:07:28;99402.09;;;11.64;100.00
7157;BME280;3620;49.862;8.758;2023-01-05T00:09:54;99411.63;;;11.66;100.00
7157;BME280;3620;49.862;8.758;2023-01-05T00:12:22;99388.06;;;11.63;100.00
7157;BME280;3620;49.862;8.758;2023-01-05T00:15:08;99408.66;;;11.74;100.00
7157;BME280;3620;49.862;8.758;2023-01-05T00:17:52;99388.84;;;11.65;100.00
7157;BME280;3620;49.862;8.758;2023-01-05T00:20:36;99399.38;;;11.65;100.00
7157;BME280;3620;49.862;8.758;2023-01-05T00:23:20;99395.69;;;11.69;100.00
7157;BME280;3620;49.862;8.758;2023-01-05T00:25:47;99395.69;;;11.69;100.00
7157;BME280;3620;49.862;8.758;2023-01-05T00:28:15;99375.19;;;11.57;100.00
7157;BME280;3620;49.862;8.758;2023-01-05T00:30:43;99369.22;;;11.72;100.00
7157;BME280;3620;49.862;8.758;2023-01-05T00:33:10;99381.31;;;11.76;100.00
7157;BME280;3620;49.862;8.758;2023-01-05T00:35:37;99374.97;;;11.81;100.00
7157;BME280;3620;49.862;8.758;2023-01-05T00:38:05;99382.13;;;11.96;100.00
7157;BME280;3620;49.862;8.758;2023-01-05T00:40:33;99377.88;;;11.93;100.00
7157;BME280;3620;49.862;8.758;2023-01-05T00:43:00;99374.09;;;12.16;100.00
7157;BME280;3620;49.862;8.758;2023-01-05T00:45:28;99385.03;;;12.25;100.00
7157;BME280;3620;49.862;8.758;2023-01-05T00:47:55;99372.53;;;12.12;100.00
7157;BME280;3620;49.862;8.758;2023-01-05T00:50:22;99365.25;;;12.17;100.00
7157;BME280;3620;49.862;8.758;2023-01-05T00:52:48;99367.25;;;12.12;100.00
7157;BME280;3620;49.862;8.758;2023-01-05T00:55:15;99362.84;;;12.12;100.00
7157;BME280;3620;49.862;8.758;2023-01-05T00:57:42;99346.66;;;12.20;100.00
7157;BME280;3620;49.862;8.758;2023-01-05T01:00:12;99347.03;;;12.12;100.00
7157;BME280;3620;49.862;8.758;2023-01-05T01:02:41;99335.47;;;12.15;100.00
7157;BME280;3620;49.862;8.758;2023-01-05T01:05:08;99342.31;;;12.19;100.00
7157;BME280;3620;49.862;8.758;2023-01-05T01:07:34;99336.63;;;12.09;100.00
7157;BME280;3620;49.862;8.758;2023-01-05T01:10:01;99337.63;;;12.07;100.00
7157;BME280;3620;49.862;8.758;2023-01-05T01:12:27;99338.34;;;12.10;100.00
7157;BME280;3620;49.862;8.758;2023-01-05T01:14:53;99335.31;;;12.01;100.00
7157;BME280;3620;49.862;8.758;2023-01-05T01:17:20;99323.84;;;12.02;100.00
7157;BME280;3620;49.862;8.758;2023-01-05T01:19:48;99312.53;;;12.17;100.00
7157;BME280;3620;49.862;8.758;2023-01-05T01:22:15;99344.31;;;12.14;100.00
7157;BME280;3620;49.862;8.758;2023-01-05T01:24:41;99339.53;;;12.22;100.00
7157;BME280;3620;49.862;8.758;2023-01-05T01:27:08;99353.34;;;12.44;100.00
7157;BME280;3620;49.862;8.758;2023-01-05T01:29:34;99366.66;;;12.24;100.00
7157;BME280;3620;49.862;8.758;2023-01-05T01:32:01;99360.53;;;12.23;100.00
7157;BME280;3620;49.862;8.758;2023-01-05T01:34:27;99354.50;;;12.21;100.00
7157;BME280;3620;49.862;8.758;2023-01-05T01:36:55;99361.00;;;12.14;100.00
7157;BME280;3620;49.862;8.758;2023-01-05T01:39:22;99371.78;;;12.27;100.00
7157;BME280;3620;49.862;8.758;2023-01-05T01:41:48;99383.03;;;12.30;100.00
7157;BME280;3620;49.862;8.758;2023-01-05T01:44:47;99387.00;;;12.39;100.00
7157;BME280;3620;49.862;8.758;2023-01-05T01:47:18;99407.34;;;12.37;100.00
7157;BME280;3620;49.862;8.758;2023-01-05T01:49:45;99429.06;;;12.42;100.00
7157;BME280;3620;49.862;8.758;2023-01-05T01:52:13;99434.03;;;12.31;100.00
7157;BME280;3620;49.862;8.758;2023-01-05T01:54:40;99417.38;;;12.29;100.00
7157;BME280;3620;49.862;8.758;2023-01-05T01:57:09;99432.94;;;12.35;100.00
7157;BME280;3620;49.862;8.758;2023-01-05T01:59:36;99406.25;;;12.41;100.00
7157;BME280;3620;49.862;8.758;2023-01-05T02:02:03;99419.88;;;12.32;100.00
7157;BME280;3620;49.862;8.758;2023-01-05T02:04:31;99408.09;;;12.39;100.00
7157;BME280;3620;49.862;8.758;2023-01-05T02:06:59;99399.94;;;12.61;100.00
7157;BME280;3620;49.862;8.758;2023-01-05T02:09:28;99411.81;;;12.69;100.00
7157;BME280;3620;49.862;8.758;2023-01-05T02:12:03;99414.63;;;12.49;100.00
7157;BME280;3620;49.862;8.758;2023-01-05T02:14:37;99409.66;;;12.43;100.00
7157;BME280;3620;49.862;8.758;2023-01-05T02:17:14;99407.56;;;12.67;100.00
7157;BME280;3620;49.862;8.758;2023-01-05T02:20:12;99391.81;;;12.65;100.00
7157;BME280;3620;49.862;8.758;2023-01-05T02:23:21;99396.88;;;12.52;100.00
7157;BME280;3620;49.862;8.758;2023-01-05T02:26:22;99390.63;;;12.53;100.00
7157;BME280;3620;49.862;8.758;2023-01-05T02:29:10;99389.47;;;12.59;100.00
7157;BME280;3620;49.862;8.758;2023-01-05T02:31:47;99387.84;;;12.57;100.00
7157;BME280;3620;49.862;8.758;2023-01-05T02:34:22;99384.84;;;12.64;100.00
7157;BME280;3620;49.862;8.758;2023-01-05T02:36:57;99381.53;;;12.76;100.00
7157;BME280;3620;49.862;8.758;2023-01-05T02:39:28;99377.22;;;12.58;100.00
7157;BME280;3620;49.862;8.758;2023-01-05T02:41:57;99379.06;;;12.56;100.00
7157;BME280;3620;49.862;8.758;2023-01-05T02:44:27;99385.91;;;12.60;100.00
7157;BME280;3620;49.862;8.758;2023-01-05T02:47:00;99386.81;;;12.76;100.00
7157;BME280;3620;49.862;8.758;2023-01-05T02:49:27;99393.81;;;12.77;100.00
7157;BME280;3620;49.862;8.758;2023-01-05T02:51:57;99400.59;;;12.66;100.00
7157;BME280;3620;49.862;8.758;2023-01-05T02:54:29;99404.38;;;12.43;100.00
7157;BME280;3620;49.862;8.758;2023-01-05T02:57:00;99411.19;;;12.30;100.00
7157;BME280;3620;49.862;8.758;2023-01-05T02:59:32;99403.69;;;12.39;100.00
7157;BME280;3620;49.862;8.758;2023-01-05T03:02:05;99408.97;;;12.39;100.00
7157;BME280;3620;49.862;8.758;2023-01-05T03:04:35;99404.28;;;12.27;100.00
7157;BME280;3620;49.862;8.758;2023-01-05T03:07:06;99403.41;;;12.27;100.00
7157;BME280;3620;49.862;8.758;2023-01-05T03:09:37;99405.00;;;12.31;100.00
7157;BME280;3620;49.862;8.758;2023-01-05T03:12:09;99412.44;;;12.23;100.00
7157;BME280;3620;49.862;8.758;2023-01-05T03:14:58;99426.09;;;12.31;100.00
7157;BME280;3620;49.862;8.758;2023-01-05T03:17:31;99422.19;;;12.21;100.00
7157;BME280;3620;49.862;8.758;2023-01-05T03:19:59;99415.56;;;12.31;100.00
7157;BME280;3620;49.862;8.758;2023-01-05T03:22:27;99418.56;;;12.23;100.00
7157;BME280;3620;49.862;8.758;2023-01-05T03:25:14;99423.97;;;12.20;100.00
7157;BME280;3620;49.862;8.758;2023-01-05T03:28:01;99442.38;;;12.22;100.00
7157;BME280;3620;49.862;8.758;2023-01-05T03:30:49;99427.25;;;12.25;100.00
7157;BME280;3620;49.862;8.758;2023-01-05T03:33:42;99433.69;;;12.20;100.00
7157;BME280;3620;49.862;8.758;2023-01-05T03:36:28;99435.50;;;12.36;100.00
7157;BME280;3620;49.862;8.758;2023-01-05T03:38:56;99439.88;;;12.19;100.00
7157;BME280;3620;49.862;8.758;2023-01-05T03:41:25;99438.66;;;12.26;100.00
7157;BME280;3620;49.862;8.758;2023-01-05T03:43:52;99442.53;;;12.19;100.00
7157;BME280;3620;49.862;8.758;2023-01-05T03:46:21;99448.53;;;12.04;100.00
7157;BME280;3620;49.862;8.758;2023-01-05T03:48:49;99435.69;;;12.15;100.00
7157;BME280;3620;49.862;8.758;2023-01-05T03:51:16;99445.13;;;12.02;100.00
7157;BME280;3620;49.862;8.758;2023-01-05T03:53:42;99464.50;;;12.01;100.00
7157;BME280;3620;49.862;8.758;2023-01-05T03:56:09;99472.31;;;12.02;100.00
7157;BME280;3620;49.862;8.758;2023-01-05T03:58:36;99485.31;;;11.88;100.00
7157;BME280;3620;49.862;8.758;2023-01-05T04:01:03;99491.72;;;11.83;100.00
7157;BME280;3620;49.862;8.758;2023-01-05T04:03:30;99501.19;;;11.87;100.00
7157;BME280;3620;49.862;8.758;2023-01-05T04:05:58;99498.34;;;11.72;100.00
7157;BME280;3620;49.862;8.758;2023-01-05T04:08:24;99489.84;;;11.66;100.00
7157;BME280;3620;49.862;8.758;2023-01-05T04:10:51;99502.84;;;11.70;100.00
7157;BME280;3620;49.862;8.758;2023-01-05T04:13:17;99495.53;;;11.75;100.00
7157;BME280;3620;49.862;8.758;2023-01-05T04:15:44;99500.53;;;11.43;100.00
7157;BME280;3620;49.862;8.758;2023-01-05T04:18:10;99510.66;;;11.33;100.00
7157;BME280;3620;49.862;8.758;2023-01-05T04:20:37;99510.50;;;11.36;100.00
7157;BME280;3620;49.862;8.758;2023-01-05T04:23:10;99506.00;;;11.38;100.00
7157;BME280;3620;49.862;8.758;2023-01-05T04:25:36;99503.00;;;11.27;100.00
7157;BME280;3620;49.862;8.758;2023-01-05T04:28:03;99499.38;;;11.30;100.00
7157;BME280;3620;49.862;8.758;2023-01-05T04:30:30;99466.53;;;11.18;100.00
7157;BME280;3620;49.862;8.758;2023-01-05T04:32:56;99502.41;;;11.21;100.00
7157;BME280;3620;49.862;8.758;2023-01-05T04:35:22;99489.03;;;11.25;100.00
7157;BME280;3620;49.862;8.758;2023-01-05T04:37:49;99491.75;;;11.24;100.00
7157;BME280;3620;49.862;8.758;2023-01-05T04:40:17;99490.19;;;11.20;100.00
7157;BME280;3620;49.862;8.758;2023-01-05T04:42:43;99499.25;;;11.13;100.00
7157;BME280;3620;49.862;8.758;2023-01-05T04:45:10;99506.69;;;11.03;100.00
7157;BME280;3620;49.862;8.758;2023-01-05T04:47:36;99509.06;;;11.09;97.64
7157;BME280;3620;49.862;8.758;2023-01-05T04:50:04;99512.75;;;11.05;99.63
7157;BME280;3620;49.862;8.758;2023-01-05T04:52:31;99513.00;;;11.19;98.76
7157;BME280;3620;49.862;8.758;2023-01-05T04:54:57;99505.25;;;11.16;97.85
7157;BME280;3620;49.862;8.758;2023-01-05T04:57:25;99512.06;;;11.20;96.93
7157;BME280;3620;49.862;8.758;2023-01-05T04:59:51;99523.16;;;11.28;95.88
7157;BME280;3620;49.862;8.758;2023-01-05T05:02:18;99509.72;;;11.14;95.73
7157;BME280;3620;49.862;8.758;2023-01-05T05:04:44;99506.22;;;11.14;96.73
7157;BME280;3620;49.862;8.758;2023-01-05T05:07:11;99510.50;;;11.16;96.20
7157;BME280;3620;49.862;8.758;2023-01-05T05:09:38;99500.50;;;11.24;94.80
7157;BME280;3620;49.862;8.758;2023-01-05T05:12:05;99511.28;;;10.98;96.29
7157;BME280;3620;49.862;8.758;2023-01-05T05:14:33;99502.47;;;11.19;95.98
7157;BME280;3620;49.862;8.758;2023-01-05T05:16:59;99509.72;;;10.94;96.85
7157;BME280;3620;49.862;8.758;2023-01-05T05:19:26;99528.81;;;10.99;97.20
7157;BME280;3620;49.862;8.758;2023-01-05T05:21:52;99526.56;;;11.10;96.76
7157;BME280;3620;49.862;8.758;2023-01-05T05:24:20;99527.63;;;11.06;96.94
7157;BME280;3620;49.862;8.758;2023-01-05T05:26:47;99538.94;;;11.08;96.88
7157;BME280;3620;49.862;8.758;2023-01-05T05:29:13;99535.66;;;11.03;97.23
7157;BME280;3620;49.862;8.758;2023-01-05T05:31:41;99535.06;;;11.17;96.14
7157;BME280;3620;49.862;8.758;2023-01-05T05:34:08;99547.25;;;11.19;97.12
7157;BME280;3620;49.862;8.758;2023-01-05T05:36:34;99541.19;;;11.17;98.11
7157;BME280;3620;49.862;8.758;2023-01-05T05:39:02;99557.50;;;11.25;97.44
7157;BME280;3620;49.862;8.758;2023-01-05T05:41:29;99564.81;;;11.39;96.49
7157;BME280;3620;49.862;8.758;2023-01-05T05:43:55;99557.38;;;11.28;96.12
7157;BME280;3620;49.862;8.758;2023-01-05T05:46:25;99555.81;;;11.24;95.62
7157;BME280;3620;49.862;8.758;2023-01-05T05:48:53;99556.06;;;11.18;96.30
7157;BME280;3620;49.862;8.758;2023-01-05T05:51:19;99569.56;;;11.31;95.75
7157;BME280;3620;49.862;8.758;2023-01-05T05:53:46;99573.19;;;11.28;95.84
7157;BME280;3620;49.862;8.758;2023-01-05T05:56:14;99571.06;;;11.36;95.96
7157;BME280;3620;49.862;8.758;2023-01-05T05:58:42;99575.03;;;11.26;96.37
7157;BME280;3620;49.862;8.758;2023-01-05T06:01:09;99575.41;;;11.17;96.14
7157;BME280;3620;49.862;8.758;2023-01-05T06:03:36;99575.66;;;11.31;96.01
7157;BME280;3620;49.862;8.758;2023-01-05T06:06:05;99591.47;;;11.51;96.30
7157;BME280;3620;49.862;8.758;2023-01-05T06:08:31;99584.16;;;11.58;95.82
7157;BME280;3620;49.862;8.758;2023-01-05T06:10:58;99584.09;;;11.59;95.47
7157;BME280;3620;49.862;8.758;2023-01-05T06:13:25;99587.16;;;11.70;94.73
7157;BME280;3620;49.862;8.758;2023-01-05T06:15:52;99585.56;;;11.66;93.96
7157;BME280;3620;49.862;8.758;2023-01-05T06:18:18;99590.81;;;11.66;94.00
7157;BME280;3620;49.862;8.758;2023-01-05T06:20:44;99581.88;;;11.70;94.86
7157;BME280;3620;49.862;8.758;2023-01-05T06:23:12;99584.75;;;11.64;94.89
7157;BME280;3620;49.862;8.758;2023-01-05T06:25:39;99592.44;;;11.70;93.63
7157;BME280;3620;49.862;8.758;2023-01-05T06:28:06;99595.63;;;11.57;93.78
7157;BME280;3620;49.862;8.758;2023-01-05T06:30:32;99594.88;;;11.53;94.07
7157;BME280;3620;49.862;8.758;2023-01-05T06:32:59;99606.88;;;11.60;93.54
7157;BME280;3620;49.862;8.758;2023-01-05T06:35:25;99599.25;;;11.54;94.34
7157;BME280;3620;49.862;8.758;2023-01-05T06:37:52;99597.72;;;11.49;93.73
7157;BME280;3620;49.862;8.758;2023-01-05T06:40:20;99599.56;;;11.47;93.19
7157;BME280;3620;49.862;8.758;2023-01-05T06:42:47;99601.19;;;11.51;94.00
7157;BME280;3620;49.862;8.758;2023-01-05T06:45:14;99602.16;;;11.48;94.15
7157;BME280;3620;49.862;8.758;2023-01-05T06:47:41;99604.78;;;11.48;93.31
7157;BME280;3620;49.862;8.758;2023-01-05T06:50:08;99607.56;;;11.45;93.81
7157;BME280;3620;49.862;8.758;2023-01-05T06:52:35;99598.94;;;11.82;91.47
7157;BME280;3620;49.862;8.758;2023-01-05T06:55:05;99614.78;;;11.60;92.45
7157;BME280;3620;49.862;8.758;2023-01-05T06:57:33;99624.25;;;11.64;92.37
7157;BME280;3620;49.862;8.758;2023-01-05T07:00:01;99610.69;;;11.53;92.63
7157;BME280;3620;49.862;8.758;2023-01-05T07:02:28;99617.19;;;11.46;92.94
7157;BME280;3620;49.862;8.758;2023-01-05T07:04:54;99612.53;;;11.51;91.88
7157;BME280;3620;49.862;8.758;2023-01-05T07:07:21;99607.16;;;11.54;92.61
7157;BME280;3620;49.862;8.758;2023-01-05T07:09:47;99617.97;;;11.48;92.78
7157;BME280;3620;49.862;8.758;2023-01-05T07:12:14;99623.34;;;11.45;93.15
7157;BME280;3620;49.862;8.758;2023-01-05T07:14:42;99617.22;;;11.45;93.66
7157;BME280;3620;49.862;8.758;2023-01-05T07:17:09;99622.34;;;11.69;91.70
7157;BME280;3620;49.862;8.758;2023-01-05T07:19:36;99619.28;;;11.58;92.81
7157;BME280;3620;49.862;8.758;2023-01-05T07:22:03;99622.97;;;11.54;92.85
7157;BME280;3620;49.862;8.758;2023-01-05T07:24:30;99626.94;;;11.44;93.13
7157;BME280;3620;49.862;8.758;2023-01-05T07:26:57;99625.91;;;11.47;94.31
7157;BME280;3620;49.862;8.758;2023-01-05T07:29:23;99625.09;;;11.46;93.62
7157;BME280;3620;49.862;8.758;2023-01-05T07:31:51;99634.00;;;11.42;94.44
7157;BME280;3620;49.862;8.758;2023-01-05T07:34:18;99637.91;;;11.54;94.88
7157;BME280;3620;49.862;8.758;2023-01-05T07:36:45;99636.13;;;11.54;94.47
7157;BME280;3620;49.862;8.758;2023-01-05T07:39:12;99640.22;;;11.61;94.54
7157;BME280;3620;49.862;8.758;2023-01-05T07:41:38;99650.50;;;11.47;95.53
7157;BME280;3620;49.862;8.758;2023-01-05T07:44:05;99656.81;;;11.43;96.05
7157;BME280;3620;49.862;8.758;2023-01-05T07:46:34;99658.38;;;11.47;96.15
7157;BME280;3620;49.862;8.758;2023-01-05T07:49:02;99657.47;;;11.48;96.49
7157;BME280;3620;49.862;8.758;2023-01-05T07:51:29;99666.44;;;11.44;97.05
7157;BME280;3620;49.862;8.758;2023-01-05T07:53:56;99665.28;;;11.30;98.34
7157;BME280;3620;49.862;8.758;2023-01-05T07:56:22;99673.31;;;11.27;98.70
7157;BME280;3620;49.862;8.758;2023-01-05T07:58:49;99671.09;;;11.38;98.60
7157;BME280;3620;49.862;8.758;2023-01-05T08:01:16;99684.03;;;11.44;97.84
7157;BME280;3620;49.862;8.758;2023-01-05T08:03:43;99685.69;;;11.46;97.99
7157;BME280;3620;49.862;8.758;2023-01-05T08:06:12;99680.22;;;11.51;98.12
7157;BME280;3620;49.862;8.758;2023-01-05T08:08:39;99684.44;;;11.55;98.41
7157;BME280;3620;49.862;8.758;2023-01-05T08:11:08;99695.16;;;11.50;98.20
7157;BME280;3620;49.862;8.758;2023-01-05T08:13:35;99681.16;;;11.70;97.59
7157;BME280;3620;49.862;8.758;2023-01-05T08:16:19;99697.69;;;11.73;97.63
7157;BME280;3620;49.862;8.758;2023-01-05T08:18:46;99694.66;;;11.83;97.62
7157;BME280;3620;49.862;8.758;2023-01-05T08:21:14;99700.09;;;11.80;98.05
7157;BME280;3620;49.862;8.758;2023-01-05T08:23:40;99701.00;;;11.78;98.72
7157;BME280;3620;49.862;8.758;2023-01-05T08:26:09;99713.50;;;11.73;98.81
7157;BME280;3620;49.862;8.758;2023-01-05T08:28:37;99701.97;;;11.76;99.26
7157;BME280;3620;49.862;8.758;2023-01-05T08:31:06;99706.38;;;11.75;99.08
7157;BME280;3620;49.862;8.758;2023-01-05T08:33:33;99710.31;;;11.65;99.61
7157;BME280;3620;49.862;8.758;2023-01-05T08:36:00;99722.47;;;11.69;99.65
7157;BME280;3620;49.862;8.758;2023-01-05T08:38:28;99712.16;;;11.63;100.00
7157;BME280;3620;49.862;8.758;2023-01-05T08:40:57;99718.94;;;11.70;100.00
7157;BME280;3620;49.862;8.758;2023-01-05T08:43:24;99711.16;;;11.67;100.00
7157;BME280;3620;49.862;8.758;2023-01-05T08:45:51;99716.75;;;11.58;100.00
7157;BME280;3620;49.862;8.758;2023-01-05T08:48:18;99704.56;;;11.77;99.62
7157;BME280;3620;49.862;8.758;2023-01-05T08:50:44;99714.06;;;11.82;99.22
7157;BME280;3620;49.862;8.758;2023-01-05T08:53:11;99709.38;;;11.88;98.11
7157;BME280;3620;49.862;8.758;2023-01-05T08:55:39;99712.53;;;11.76;98.84
7157;BME280;3620;49.862;8.758;2023-01-05T08:58:05;99710.94;;;11.72;99.11
7157;BME280;3620;49.862;8.758;2023-01-05T09:00:32;99719.56;;;11.75;98.80
7157;BME280;3620;49.862;8.758;2023-01-05T09:02:59;99731.16;;;11.71;98.91
7157;BME280;3620;49.862;8.758;2023-01-05T09:05:25;99717.19;;;11.69;99.45
7157;BME280;3620;49.862;8.758;2023-01-05T09:07:52;99711.38;;;11.61;99.66
7157;BME280;3620;49.862;8.758;2023-01-05T09:10:18;99714.19;;;11.99;97.65
7157;BME280;3620;49.862;8.758;2023-01-05T09:12:46;99732.75;;;11.75;98.63
7157;BME280;3620;49.862;8.758;2023-01-05T09:15:13;99736.22;;;11.77;98.69
7157;BME280;3620;49.862;8.758;2023-01-05T09:17:39;99736.31;;;11.74;99.24
7157;BME280;3620;49.862;8.758;2023-01-05T09:20:06;99735.06;;;11.83;98.40
7157;BME280;3620;49.862;8.758;2023-01-05T09:22:33;99740.81;;;11.93;98.19
7157;BME280;3620;49.862;8.758;2023-01-05T09:25:01;99750.91;;;12.03;97.68
7157;BME280;3620;49.862;8.758;2023-01-05T09:27:27;99752.69;;;12.03;97.74
7157;BME280;3620;49.862;8.758;2023-01-05T09:29:55;99750.78;;;12.06;97.35
7157;BME280;3620;49.862;8.758;2023-01-05T09:32:22;99742.53;;;12.14;97.13
7157;BME280;3620;49.862;8.758;2023-01-05T09:34:49;99748.06;;;12.28;95.67
7157;BME280;3620;49.862;8.758;2023-01-05T09:37:15;99751.47;;;12.30;96.03
7157;BME280;3620;49.862;8.758;2023-01-05T09:39:42;99766.53;;;12.08;96.61
7157;BME280;3620;49.862;8.758;2023-01-05T09:42:12;99752.94;;;12.17;95.82
7157;BME280;3620;49.862;8.758;2023-01-05T09:44:43;99771.91;;;12.25;96.34
7157;BME280;3620;49.862;8.758;2023-01-05T09:47:16;99772.78;;;12.25;96.74
7157;BME280;3620;49.862;8.758;2023-01-05T09:49:44;99776.75;;;12.35;95.70
7157;BME280;3620;49.862;8.758;2023-01-05T09:52:13;99767.38;;;12.28;96.56
7157;BME280;3620;49.862;8.758;2023-01-05T09:54:40;99768.75;;;12.37;95.29
7157;BME280;3620;49.862;8.758;2023-01-05T09:57:14;99774.69;;;12.42;95.47
7157;BME280;3620;49.862;8.758;2023-01-05T09:59:43;99768.75;;;12.37;95.76
7157;BME280;3620;49.862;8.758;2023-01-05T10:02:17;99767.03;;;12.36;96.31
7157;BME280;3620;49.862;8.758;2023-01-05T10:04:45;99767.44;;;12.27;96.31
7157;BME280;3620;49.862;8.758;2023-01-05T10:07:18;99764.19;;;12.40;96.17
7157;BME280;3620;49.862;8.758;2023-01-05T10:09:46;99780.03;;;12.40;95.98
7157;BME280;3620;49.862;8.758;2023-01-05T10:12:18;99785.50;;;12.36;96.22
7157;BME280;3620;49.862;8.758;2023-01-05T10:15:07;99781.00;;;12.38;95.80
7157;BME280;3620;49.862;8.758;2023-01-05T10:17:37;99785.06;;;12.65;95.72
7157;BME280;3620;49.862;8.758;2023-01-05T10:20:13;99779.50;;;12.71;95.14
7157;BME280;3620;49.862;8.758;2023-01-05T10:22:47;99790.91;;;12.53;94.91
7157;BME280;3620;49.862;8.758;2023-01-05T10:25:20;99786.03;;;12.44;95.37
7157;BME280;3620;49.862;8.758;2023-01-05T10:27:54;99789.59;;;12.43;95.58
7157;BME280;3620;49.862;8.758;2023-01-05T10:30:23;99797.34;;;12.66;94.88
7157;BME280;3620;49.862;8.758;2023-01-05T10:32:57;99792.50;;;12.57;94.73
7157;BME280;3620;49.862;8.758;2023-01-05T10:35:41;99796.69;;;12.61;95.47
7157;BME280;3620;49.862;8.758;2023-01-05T10:38:20;99800.31;;;12.59;95.02
7157;BME280;3620;49.862;8.758;2023-01-05T10:40:57;99802.97;;;12.59;95.35
7157;BME280;3620;49.862;8.758;2023-01-05T10:43:43;99809.19;;;12.76;94.67
7157;BME280;3620;49.862;8.758;2023-01-05T10:46:15;99799.66;;;12.92;93.57
7157;BME280;3620;49.862;8.758;2023-01-05T10:48:44;99803.72;;;12.81;93.25
7157;BME280;3620;49.862;8.758;2023-01-05T10:51:10;99808.53;;;12.71;93.58
7157;BME280;3620;49.862;8.758;2023-01-05T10:53:39;99809.13;;;12.78;92.72
7157;BME280;3620;49.862;8.758;2023-01-05T10:56:12;99798.94;;;12.70;93.15
7157;BME280;3620;49.862;8.758;2023-01-05T10:58:41;99802.06;;;12.78;92.67
7157;BME280;3620;49.862;8.758;2023-01-05T11:01:18;99803.09;;;12.94;91.33
7157;BME280;3620;49.862;8.758;2023-01-05T11:03:52;99805.50;;;12.80;90.97
7157;BME280;3620;49.862;8.758;2023-01-05T11:06:22;99797.94;;;12.91;91.31
7157;BME280;3620;49.862;8.758;2023-01-05T11:08:50;99800.09;;;12.83;91.23
7157;BME280;3620;49.862;8.758;2023-01-05T11:11:22;99793.44;;;12.93;91.33
7157;BME280;3620;49.862;8.758;2023-01-05T11:13:52;99791.16;;;13.06;90.29
7157;BME280;3620;49.862;8.758;2023-01-05T11:16:22;99796.69;;;13.00;90.04
7157;BME280;3620;49.862;8.758;2023-01-05T11:18:53;99800.13;;;13.02;90.56
7157;BME280;3620;49.862;8.758;2023-01-05T11:21:21;99793.91;;;12.84;89.97
7157;BME280;3620;49.862;8.758;2023-01-05T11:23:50;99809.13;;;13.16;90.12
7157;BME280;3620;49.862;8.758;2023-01-05T11:26:31;99798.06;;;13.08;90.16
7157;BME280;3620;49.862;8.758;2023-01-05T11:29:11;99802.81;;;13.00;89.49
7157;BME280;3620;49.862;8.758;2023-01-05T11:31:41;99807.88;;;13.06;89.01
7157;BME280;3620;49.862;8.758;2023-01-05T11:34:16;99807.09;;;13.03;88.97
7157;BME280;3620;49.862;8.758;2023-01-05T11:36:52;99811.81;;;12.96;88.31
7157;BME280;3620;49.862;8.758;2023-01-05T11:39:27;99801.88;;;13.01;88.38
7157;BME280;3620;49.862;8.758;2023-01-05T11:42:19;99807.69;;;13.09;87.30
7157;BME280;3620;49.862;8.758;2023-01-05T11:44:48;99803.56;;;13.22;86.54
7157;BME280;3620;49.862;8.758;2023-01-05T11:47:25;99807.97;;;13.03;87.57
7157;BME280;3620;49.862;8.758;2023-01-05T11:50:03;99805.16;;;13.27;87.59
7157;BME280;3620;49.862;8.758;2023-01-05T11:52:35;99803.72;;;13.19;86.82
7157;BME280;3620;49.862;8.758;2023-01-05T11:55:30;99818.72;;;13.38;86.62
7157;BME280;3620;49.862;8.758;2023-01-05T11:58:19;99810.69;;;13.20;86.89
7157;BME280;3620;49.862;8.758;2023-01-05T12:01:10;99803.72;;;13.19;86.48
7157;BME280;3620;49.862;8.758;2023-01-05T12:03:58;99807.13;;;13.21;85.66
7157;BME280;3620;49.862;8.758;2023-01-05T12:06:38;99810.13;;;13.14;85.88
7157;BME280;3620;49.862;8.758;2023-01-05T12:09:17;99808.72;;;13.26;85.94
7157;BME280;3620;49.862;8.758;2023-01-05T12:11:55;99807.69;;;13.09;84.86
7157;BME280;3620;49.862;8.758;2023-01-05T12:14:33;99801.84;;;13.21;84.92
7157;BME280;3620;49.862;8.758;2023-01-05T12:17:05;99795.34;;;13.29;84.64
7157;BME280;3620;49.862;8.758;2023-01-05T12:19:57;99800.91;;;13.04;86.11
7157;BME280;3620;49.862;8.758;2023-01-05T12:22:51;99794.84;;;13.20;85.28
7157;BME280;3620;49.862;8.758;2023-01-05T12:25:31;99799.56;;;13.33;85.54
7157;BME280;3620;49.862;8.758;2023-01-05T12:28:17;99813.50;;;13.17;86.12
7157;BME280;3620;49.862;8.758;2023-01-05T12:30:52;99817.66;;;13.03;86.91
7157;BME280;3620;49.862;8.758;2023-01-05T12:33:35;99814.22;;;13.01;87.09
7157;BME280;3620;49.862;8.758;2023-01-05T12:36:25;99810.81;;;12.99;87.12
7157;BME280;3620;49.862;8.758;2023-01-05T12:39:05;99818.84;;;12.96;87.12
7157;BME280;3620;49.862;8.758;2023-01-05T12:41:58;99814.94;;;13.04;86.52
7157;BME280;3620;49.862;8.758;2023-01-05T12:44:50;99811.94;;;12.93;87.08
7157;BME280;3620;49.862;8.758;2023-01-05T12:47:34;99822.25;;;13.18;86.28
7157;BME280;3620;49.862;8.758;2023-01-05T12:50:19;99824.13;;;13.35;86.24
7157;BME280;3620;49.862;8.758;2023-01-05T12:52:50;99827.00;;;13.49;85.49
7157;BME280;3620;49.862;8.758;2023-01-05T12:55:21;99828.41;;;13.37;85.69
7157;BME280;3620;49.862;8.758;2023-01-05T12:57:50;99826.84;;;13.33;85.45
7157;BME280;3620;49.862;8.758;2023-01-05T13:00:22;99819.53;;;13.57;85.41
7157;BME280;3620;49.862;8.758;2023-01-05T13:02:53;99829.09;;;13.59;85.62
7157;BME280;3620;49.862;8.758;2023-01-05T13:05:26;99825.25;;;13.48;85.11
7157;BME280;3620;49.862;8.758;2023-01-05T13:07:56;99817.41;;;13.46;86.00
7157;BME280;3620;49.862;8.758;2023-01-05T13:10:32;99824.81;;;13.75;85.27
7157;BME280;3620;49.862;8.758;2023-01-05T13:13:05;99820.50;;;13.73;84.30
7157;BME280;3620;49.862;8.758;2023-01-05T13:15:40;99828.16;;;13.96;83.84
7157;BME280;3620;49.862;8.758;2023-01-05T13:18:13;99826.75;;;13.89;84.91
7157;BME280;3620;49.862;8.758;2023-01-05T13:20:44;99828.38;;;13.91;84.91
7157;BME280;3620;49.862;8.758;2023-01-05T13:23:15;99817.34;;;14.01;84.55
7157;BME280;3620;49.862;8.758;2023-01-05T13:25:49;99828.94;;;13.98;85.12
7157;BME280;3620;49.862;8.758;2023-01-05T13:28:18;99818.22;;;13.65;85.48
7157;BME280;3620;49.862;8.758;2023-01-05T13:30:53;99819.97;;;13.29;87.17
7157;BME280;3620;49.862;8.758;2023-01-05T13:33:40;99818.19;;;13.30;87.01
7157;BME280;3620;49.862;8.758;2023-01-05T13:36:23;99821.69;;;13.49;87.06